Time;durP1;ratioP1;P1;durP2;ratioP2;P2;SDS_P1;SDS_P2;PMS_P1;PMS_P2;Temp;Humidity;BMP_temperature;BMP_pressure;BME280_temperature;BME280_humidity;BME280_pressure;Samples;Min_cycle;Max_cycle;Signal;HPM_P1;HPM_P2
2023/03/11 00:00:15;;;;;;;1.43;1.43;;;;;;;0.42;85.03;95354.03;5069415;28;20198;-70
2023/03/11 00:02:43;;;;;;;1.87;1.77;;;;;;;0.47;84.06;95337.09;5070975;28;20221;-68
2023/03/11 00:05:14;;;;;;;1.83;1.73;;;;;;;0.44;84.68;95346.03;5066985;28;20579;-71
2023/03/11 00:07:42;;;;;;;1.60;1.57;;;;;;;0.45;82.50;95360.69;5070788;28;20222;-70
2023/03/11 00:10:13;;;;;;;2.10;2.00;;;;;;;0.37;83.64;95366.72;5021673;28;20833;-70
2023/03/11 00:12:41;;;;;;;1.90;1.80;;;;;;;0.45;83.33;95384.13;5072080;28;20202;-71
2023/03/11 00:15:11;;;;;;;1.67;1.67;;;;;;;0.47;81.79;95379.56;5047279;28;20206;-68
2023/03/11 00:17:39;;;;;;;1.27;1.27;;;;;;;0.45;81.47;95397.16;5074760;28;20206;-70
2023/03/11 00:20:08;;;;;;;1.97;1.90;;;;;;;0.46;80.78;95393.59;5077035;28;20308;-70
2023/03/11 00:22:36;;;;;;;1.80;1.80;;;;;;;0.46;80.55;95406.59;5074349;28;20596;-71
2023/03/11 00:25:04;;;;;;;1.27;1.27;;;;;;;0.50;79.19;95376.63;5029397;28;20213;-69
2023/03/11 00:27:31;;;;;;;1.43;1.43;;;;;;;0.43;79.82;95417.38;5075145;28;20399;-69
2023/03/11 00:29:59;;;;;;;1.60;1.50;;;;;;;0.41;80.56;95412.34;5049440;28;20202;-69
2023/03/11 00:32:28;;;;;;;2.27;1.57;;;;;;;0.43;79.81;95430.41;5074526;28;20725;-72
2023/03/11 00:34:56;;;;;;;1.93;1.83;;;;;;;0.39;80.64;95424.72;5073020;28;20206;-69
2023/03/11 00:37:23;;;;;;;1.63;1.63;;;;;;;0.43;78.88;95417.38;5071414;28;20307;-69
2023/03/11 00:39:51;;;;;;;1.43;1.40;;;;;;;0.41;78.45;95432.34;5067815;28;20371;-70
2023/03/11 00:42:19;;;;;;;1.90;1.80;;;;;;;0.48;77.93;95425.50;5035731;28;21384;-70
2023/03/11 00:44:47;;;;;;;1.83;1.73;;;;;;;0.43;78.31;95426.00;5051180;28;20206;-69
2023/03/11 00:47:14;;;;;;;1.57;1.53;;;;;;;0.40;79.58;95439.38;5067651;28;20428;-70
2023/03/11 00:49:43;;;;;;;1.47;1.37;;;;;;;0.43;78.76;95440.81;5072398;28;20217;-70
2023/03/11 00:52:11;;;;;;;1.40;1.30;;;;;;;0.45;77.60;95432.84;5064924;28;20201;-72
2023/03/11 00:54:38;;;;;;;1.37;1.37;;;;;;;0.39;77.92;95409.09;5073050;28;20478;-70
2023/03/11 00:57:06;;;;;;;1.87;1.77;;;;;;;0.39;77.80;95435.13;5024040;28;20245;-71
2023/03/11 00:59:34;;;;;;;1.90;1.80;;;;;;;0.38;78.09;95461.34;5051154;28;20210;-70
2023/03/11 01:02:01;;;;;;;1.47;1.47;;;;;;;0.33;77.75;95464.41;5062307;28;20562;-71
2023/03/11 01:04:29;;;;;;;1.73;1.70;;;;;;;0.32;78.53;95468.00;5069440;28;20819;-71
2023/03/11 01:06:58;;;;;;;1.73;1.70;;;;;;;0.27;78.68;95478.94;5070254;28;20259;-69
2023/03/11 01:09:26;;;;;;;1.70;1.60;;;;;;;0.28;78.63;95472.75;5069107;28;20252;-69
2023/03/11 01:11:54;;;;;;;1.70;1.70;;;;;;;0.26;78.66;95460.84;5022106;28;20210;-70
2023/03/11 01:14:21;;;;;;;1.90;1.80;;;;;;;0.30;77.36;95464.75;5050940;28;20365;-69
2023/03/11 01:16:49;;;;;;;2.03;1.83;;;;;;;0.30;77.39;95475.16;5070048;28;20221;-70
2023/03/11 01:19:17;;;;;;;1.40;1.40;;;;;;;0.27;77.34;95470.28;5062688;28;20207;-70
2023/03/11 01:21:44;;;;;;;1.40;1.40;;;;;;;0.33;77.08;95459.22;5069422;28;20237;-70
2023/03/11 01:24:13;;;;;;;1.90;1.80;;;;;;;0.30;77.61;95474.38;5068293;28;20193;-70
2023/03/11 01:26:41;;;;;;;1.83;1.73;;;;;;;0.27;77.38;95475.50;5029248;28;20571;-70
2023/03/11 01:29:09;;;;;;;1.53;1.50;;;;;;;0.23;78.04;95485.44;5066396;28;20198;-70
2023/03/11 01:31:36;;;;;;;3.03;1.70;;;;;;;0.22;77.77;95493.41;5039251;28;20210;-70
2023/03/11 01:34:04;;;;;;;1.50;1.50;;;;;;;0.21;77.47;95518.66;5067307;28;20457;-70
2023/03/11 01:36:31;;;;;;;1.47;1.47;;;;;;;0.18;78.45;95511.13;5068073;28;20223;-70
2023/03/11 01:38:59;;;;;;;1.70;1.60;;;;;;;0.18;77.91;95507.72;5067561;28;20198;-69
2023/03/11 01:41:28;;;;;;;1.30;1.30;;;;;;;0.15;77.78;95503.63;5021674;28;21276;-71
2023/03/11 01:43:56;;;;;;;1.10;1.10;;;;;;;0.04;78.03;95494.38;5071410;28;20720;-70
2023/03/11 01:46:25;;;;;;;1.57;1.50;;;;;;;0.11;78.16;95503.16;5047618;28;21097;-70
2023/03/11 01:48:54;;;;;;;1.40;1.40;;;;;;;0.13;77.42;95518.63;5067049;28;20194;-72
2023/03/11 01:51:26;;;;;;;1.67;1.50;;;;;;;0.10;77.58;95511.13;5064998;28;20436;-72
2023/03/11 01:53:54;;;;;;;1.57;1.57;;;;;;;0.05;78.61;95506.41;5072184;28;20697;-72
2023/03/11 01:56:22;;;;;;;1.77;1.67;;;;;;;0.03;78.26;95516.16;5020455;28;20456;-73
2023/03/11 01:58:52;;;;;;;1.70;1.60;;;;;;;0.02;78.85;95509.34;5071914;28;20281;-72
2023/03/11 02:01:20;;;;;;;1.30;1.30;;;;;;;-0.03;78.43;95506.38;5067863;28;20232;-70
2023/03/11 02:03:48;;;;;;;1.37;1.37;;;;;;;-0.05;79.08;95521.34;5052667;28;20229;-71
2023/03/11 02:06:18;;;;;;;1.33;1.33;;;;;;;-0.16;79.28;95504.25;5063195;28;20226;-70
2023/03/11 02:08:47;;;;;;;1.57;1.57;;;;;;;-0.07;78.99;95520.69;5070238;28;20657;-70
2023/03/11 02:11:17;;;;;;;1.40;1.40;;;;;;;-0.06;78.40;95540.53;5068302;28;20202;-70
2023/03/11 02:13:46;;;;;;;1.60;1.60;;;;;;;-0.09;78.65;95538.25;5020832;28;20205;-69
2023/03/11 02:16:16;;;;;;;1.30;1.30;;;;;;;-0.13;79.68;95534.34;5056096;28;20879;-70
2023/03/11 02:18:44;;;;;;;1.30;1.30;;;;;;;-0.17;79.87;95532.03;5044360;28;20674;-72
2023/03/11 02:21:20;;;;;;;1.20;1.20;;;;;;;-0.27;80.13;95528.75;5060615;28;20472;-70
2023/03/11 02:23:56;;;;;;;1.40;1.40;;;;;;;-0.20;79.87;95562.78;5068344;28;20471;-72
2023/03/11 02:26:26;;;;;;;1.50;1.40;;;;;;;-0.19;80.22;95564.41;5071545;28;20518;-69
2023/03/11 02:28:56;;;;;;;1.40;1.40;;;;;;;-0.24;80.05;95553.66;5028584;28;20210;-70
2023/03/11 02:31:23;;;;;;;1.57;1.50;;;;;;;-0.28;80.51;95566.19;5065907;28;20400;-70
2023/03/11 02:33:53;;;;;;;1.20;1.20;;;;;;;-0.26;80.35;95568.59;5051800;28;20190;-70
2023/03/11 02:36:32;;;;;;;1.60;1.57;;;;;;;-0.26;79.95;95574.66;5067123;28;20838;-71
2023/03/11 02:39:00;;;;;;;1.33;1.33;;;;;;;-0.28;80.16;95576.59;5064430;28;20217;-70
2023/03/11 02:41:27;;;;;;;1.20;1.20;;;;;;;-0.26;79.85;95582.44;5068763;28;20206;-71
2023/03/11 02:43:57;;;;;;;1.30;1.30;;;;;;;-0.27;79.99;95572.19;5023435;28;20214;-70
2023/03/11 02:46:25;;;;;;;1.23;1.23;;;;;;;-0.30;79.76;95589.75;5064964;28;20823;-69
2023/03/11 02:48:54;;;;;;;1.40;1.40;;;;;;;-0.33;79.70;95589.25;5065774;28;20268;-70
2023/03/11 02:51:21;;;;;;;1.30;1.30;;;;;;;-0.29;80.92;95587.97;5055002;28;20212;-69
2023/03/11 02:53:52;;;;;;;1.33;1.33;;;;;;;-0.32;81.26;95594.28;5072501;28;20202;-71
2023/03/11 02:56:19;;;;;;;1.50;1.50;;;;;;;-0.32;80.47;95599.50;5065299;28;20808;-70
2023/03/11 02:58:47;;;;;;;1.40;1.40;;;;;;;-0.33;80.93;95602.28;5072632;28;20202;-70
2023/03/11 03:01:18;;;;;;;1.30;1.30;;;;;;;-0.33;81.80;95600.47;5028546;28;20202;-69
2023/03/11 03:03:45;;;;;;;1.53;1.53;;;;;;;-0.33;80.92;95597.06;5075895;28;20338;-71
2023/03/11 03:06:13;;;;;;;1.57;1.57;;;;;;;-0.32;80.35;95604.69;5043896;28;20244;-70
2023/03/11 03:08:41;;;;;;;1.10;1.10;;;;;;;-0.31;81.51;95608.94;5072214;28;21128;-70
2023/03/11 03:11:09;;;;;;;1.33;1.33;;;;;;;-0.33;81.33;95610.88;5060604;28;20207;-69
2023/03/11 03:13:36;;;;;;;1.70;1.60;;;;;;;-0.34;81.71;95622.25;5070018;28;20194;-72
2023/03/11 03:16:04;;;;;;;1.50;1.50;;;;;;;-0.42;81.49;95611.81;5021938;28;20237;-70
2023/03/11 03:18:34;;;;;;;1.70;1.60;;;;;;;-0.41;82.23;95615.22;5068652;28;20200;-70
2023/03/11 03:21:01;;;;;;;1.30;1.30;;;;;;;-0.36;82.66;95629.41;5045033;28;20487;-70
2023/03/11 03:23:33;;;;;;;1.37;1.37;;;;;;;-0.37;83.09;95635.59;5069462;28;20226;-71
2023/03/11 03:26:01;;;;;;;1.40;1.40;;;;;;;-0.37;82.59;95643.38;5069149;28;20644;-70
2023/03/11 03:28:29;;;;;;;1.37;1.37;;;;;;;-0.34;83.13;95637.06;5067432;28;20201;-71
2023/03/11 03:30:56;;;;;;;1.57;1.47;;;;;;;-0.35;82.64;95645.84;5020473;28;20218;-70
2023/03/11 03:33:24;;;;;;;1.47;1.47;;;;;;;-0.34;82.92;95642.28;5067210;28;20202;-68
2023/03/11 03:35:53;;;;;;;1.93;1.83;;;;;;;-0.35;82.76;95643.25;5067636;28;20641;-70
2023/03/11 03:38:21;;;;;;;1.63;1.63;;;;;;;-0.40;83.83;95638.50;5051798;28;20313;-70
2023/03/11 03:40:48;;;;;;;1.80;1.70;;;;;;;-0.40;83.95;95645.47;5072033;28;20234;-70
2023/03/11 03:43:16;;;;;;;1.83;1.80;;;;;;;-0.38;84.15;95653.94;5066923;28;20522;-70
2023/03/11 03:45:44;;;;;;;1.70;1.70;;;;;;;-0.41;84.23;95643.84;5022961;28;20229;-70
2023/03/11 03:48:11;;;;;;;1.80;1.70;;;;;;;-0.39;83.77;95647.09;5064688;28;20205;-70
2023/03/11 03:50:39;;;;;;;1.70;1.60;;;;;;;-0.41;84.36;95644.69;5071510;28;20228;-70
2023/03/11 03:53:08;;;;;;;1.90;1.80;;;;;;;-0.44;84.55;95647.59;5046237;28;20207;-70
2023/03/11 03:55:36;;;;;;;1.93;1.87;;;;;;;-0.45;84.73;95645.94;5066777;28;20225;-70
2023/03/11 03:58:04;;;;;;;2.13;2.03;;;;;;;-0.54;84.65;95645.06;5067775;28;20198;-69
2023/03/11 04:00:31;;;;;;;1.70;1.70;;;;;;;-0.49;84.95;95661.03;5063102;28;20214;-69
2023/03/11 04:02:59;;;;;;;1.70;1.70;;;;;;;-0.52;84.96;95652.75;5006015;28;20218;-68
2023/03/11 04:05:27;;;;;;;1.80;1.80;;;;;;;-0.56;85.09;95649.63;5055323;28;20629;-69
2023/03/11 04:07:55;;;;;;;1.80;1.80;;;;;;;-0.59;84.65;95652.53;5031884;28;20198;-70
2023/03/11 04:10:24;;;;;;;1.57;1.57;;;;;;;-0.53;84.78;95666.72;5052065;28;20431;-71
2023/03/11 04:12:51;;;;;;;1.70;1.70;;;;;;;-0.57;85.94;95668.78;5055864;28;20784;-70
2023/03/11 04:15:19;;;;;;;1.73;1.63;;;;;;;-0.54;86.33;95681.50;5053326;28;20202;-68
2023/03/11 04:17:46;;;;;;;1.77;1.77;;;;;;;-0.58;86.12;95685.38;5014381;28;20213;-69
2023/03/11 04:20:14;;;;;;;1.90;1.80;;;;;;;-0.62;85.71;95690.06;5050859;28;20202;-70
2023/03/11 04:22:42;;;;;;;1.50;1.50;;;;;;;-0.64;85.72;95683.38;5031079;28;20206;-70
2023/03/11 04:25:09;;;;;;;1.70;1.70;;;;;;;-0.68;86.30;95689.84;5051190;28;20249;-68
2023/03/11 04:27:41;;;;;;;1.73;1.70;;;;;;;-0.71;86.45;95687.56;5058179;28;20206;-71
2023/03/11 04:30:10;;;;;;;1.73;1.73;;;;;;;-0.73;87.10;95695.50;5061749;28;20251;-69
2023/03/11 04:32:38;;;;;;;2.07;1.97;;;;;;;-0.75;87.48;95700.88;5011900;28;20218;-68
2023/03/11 04:35:06;;;;;;;1.57;1.57;;;;;;;-0.73;87.31;95705.91;5057214;28;20307;-69
2023/03/11 04:37:34;;;;;;;2.00;1.90;;;;;;;-0.82;88.22;95680.78;5029933;28;20554;-69
2023/03/11 04:40:03;;;;;;;1.60;1.60;;;;;;;-0.75;87.22;95705.22;5063549;28;20217;-69
2023/03/11 04:42:30;;;;;;;1.50;1.50;;;;;;;-0.79;88.58;95704.72;5060397;28;20202;-69
2023/03/11 04:44:59;;;;;;;1.87;1.77;;;;;;;-0.80;88.33;95700.47;5060651;28;20669;-70
2023/03/11 04:47:27;;;;;;;1.87;1.77;;;;;;;-0.83;87.49;95703.38;5013518;28;20231;-69
2023/03/11 04:49:55;;;;;;;1.80;1.70;;;;;;;-0.89;87.99;95701.38;5060374;28;20398;-69
2023/03/11 04:52:23;;;;;;;1.87;1.80;;;;;;;-0.89;88.76;95720.41;5049679;28;20218;-69
2023/03/11 04:54:50;;;;;;;1.70;1.63;;;;;;;-0.90;88.84;95707.53;5040276;28;20660;-70
2023/03/11 04:57:18;;;;;;;2.10;2.00;;;;;;;-0.89;88.50;95717.81;5059686;28;20459;-70
2023/03/11 04:59:46;;;;;;;1.70;1.70;;;;;;;-0.93;88.93;95724.28;5061602;28;20965;-69
2023/03/11 05:02:15;;;;;;;1.87;1.80;;;;;;;-0.91;88.64;95727.53;5054340;28;20291;-70
2023/03/11 05:04:43;;;;;;;1.63;1.63;;;;;;;-0.92;89.20;95720.72;5012873;28;20237;-70
2023/03/11 05:07:10;;;;;;;1.93;1.93;;;;;;;-0.94;89.18;95730.44;5053164;28;20214;-69
2023/03/11 05:09:38;;;;;;;2.07;1.97;;;;;;;-0.94;89.15;95737.41;5035088;28;20285;-73
2023/03/11 05:12:08;;;;;;;2.10;2.00;;;;;;;-0.92;90.09;95748.47;5059788;28;20583;-71
2023/03/11 05:14:36;;;;;;;1.83;1.73;;;;;;;-0.94;90.07;95748.66;5031845;28;20829;-71
2023/03/11 05:17:04;;;;;;;1.87;1.70;;;;;;;-0.95;89.41;95754.78;5055409;28;20777;-69
2023/03/11 05:19:34;;;;;;;2.40;1.90;;;;;;;-0.92;90.38;95754.50;5005007;28;20788;-69
2023/03/11 05:22:02;;;;;;;1.60;1.60;;;;;;;-1.00;89.84;95746.59;5052301;28;20808;-69
2023/03/11 05:24:30;;;;;;;2.10;2.00;;;;;;;-0.98;89.40;95768.06;5011789;28;20688;-71
2023/03/11 05:26:58;;;;;;;1.70;1.70;;;;;;;-1.10;89.91;95758.84;5035007;28;20584;-71
2023/03/11 05:29:26;;;;;;;1.80;1.70;;;;;;;-1.12;90.42;95764.22;5055189;28;20693;-70
2023/03/11 05:31:54;;;;;;;1.83;1.80;;;;;;;-1.10;90.69;95766.66;5057588;28;20621;-70
2023/03/11 05:34:22;;;;;;;1.67;1.67;;;;;;;-1.02;90.34;95766.72;5003673;28;20881;-69
2023/03/11 05:36:51;;;;;;;1.97;1.87;;;;;;;-1.08;90.43;95775.13;5060455;28;20907;-71
2023/03/11 05:39:18;;;;;;;2.07;1.97;;;;;;;-1.12;90.80;95760.78;5049086;28;20599;-71
2023/03/11 05:41:46;;;;;;;1.90;1.90;;;;;;;-1.08;90.73;95772.53;5038069;28;20210;-71
2023/03/11 05:44:14;;;;;;;2.10;2.00;;;;;;;-1.13;91.24;95780.78;5057703;28;20221;-72
2023/03/11 05:46:42;;;;;;;1.90;1.90;;;;;;;-1.17;90.79;95766.41;5060086;28;20222;-72
2023/03/11 05:49:09;;;;;;;1.67;1.60;;;;;;;-1.22;91.08;95782.47;5008757;28;20506;-71
2023/03/11 05:51:37;;;;;;;2.13;2.03;;;;;;;-1.26;92.03;95786.31;5056503;28;20603;-70
2023/03/11 05:54:10;;;;;;;1.57;1.57;;;;;;;-1.26;91.29;95783.72;5056449;28;20643;-71
2023/03/11 05:56:38;;;;;;;2.43;2.23;;;;;;;-1.23;92.17;95788.63;5035317;28;20234;-69
2023/03/11 05:59:05;;;;;;;1.70;1.70;;;;;;;-1.22;92.62;95786.81;5031213;28;20213;-71
2023/03/11 06:01:33;;;;;;;2.60;2.20;;;;;;;-1.25;93.28;95789.72;5053111;28;20225;-71
2023/03/11 06:04:01;;;;;;;2.10;1.90;;;;;;;-1.24;93.67;95786.97;5036323;28;20210;-72
2023/03/11 06:06:29;;;;;;;2.30;1.90;;;;;;;-1.24;92.90;95789.59;5009827;28;20242;-72
2023/03/11 06:08:57;;;;;;;2.13;2.03;;;;;;;-1.23;92.84;95783.41;5057549;28;20210;-71
2023/03/11 06:11:26;;;;;;;2.00;1.90;;;;;;;-1.28;93.63;95780.44;5030384;28;20229;-71
2023/03/11 06:13:55;;;;;;;2.13;2.03;;;;;;;-1.29;93.12;95789.19;5032392;28;20214;-71
2023/03/11 06:16:23;;;;;;;2.47;2.27;;;;;;;-1.29;92.73;95794.41;5057733;28;20218;-72
2023/03/11 06:18:51;;;;;;;2.33;2.23;;;;;;;-1.34;92.51;95794.81;5034784;28;20262;-73
2023/03/11 06:21:20;;;;;;;2.00;1.90;;;;;;;-1.28;92.56;95809.03;5013056;28;20756;-71
2023/03/11 06:23:48;;;;;;;3.00;2.30;;;;;;;-1.27;92.42;95804.63;5059193;28;20637;-71
2023/03/11 06:26:17;;;;;;;2.10;1.97;;;;;;;-1.27;91.88;95817.63;5058142;28;20547;-71
2023/03/11 06:28:47;;;;;;;2.20;2.10;;;;;;;-1.31;92.67;95819.72;5031875;28;20217;-72
2023/03/11 06:31:16;;;;;;;1.90;1.80;;;;;;;-1.36;92.00;95827.94;5053221;28;20209;-72
2023/03/11 06:33:44;;;;;;;1.97;1.93;;;;;;;-1.38;93.47;95823.81;5035824;28;20225;-71
2023/03/11 06:36:14;;;;;;;4.50;2.27;;;;;;;-1.38;93.98;95819.47;5009306;28;21622;-70
2023/03/11 06:38:42;;;;;;;2.70;2.07;;;;;;;-1.34;93.84;95830.38;5046902;28;20206;-70
2023/03/11 06:41:10;;;;;;;2.10;2.00;;;;;;;-1.33;94.45;95827.63;5055154;28;20239;-72
2023/03/11 06:43:37;;;;;;;2.13;2.03;;;;;;;-1.32;94.66;95833.66;5034888;28;20203;-72
2023/03/11 06:46:10;;;;;;;2.43;2.23;;;;;;;-1.33;93.88;95845.84;5048479;28;20231;-71
2023/03/11 06:48:38;;;;;;;2.20;2.10;;;;;;;-1.24;94.65;95848.53;5058537;28;20201;-72
2023/03/11 06:51:06;;;;;;;2.00;1.90;;;;;;;-1.36;95.20;95833.13;5033767;28;20222;-70
2023/03/11 06:53:33;;;;;;;2.90;2.60;;;;;;;-1.27;94.75;95854.84;5009462;28;20249;-69
2023/03/11 06:56:02;;;;;;;2.87;2.67;;;;;;;-1.23;95.26;95852.75;5057674;28;20226;-72
2023/03/11 06:58:31;;;;;;;2.50;2.40;;;;;;;-1.28;93.89;95858.41;5035872;28;20221;-70
2023/03/11 07:01:00;;;;;;;2.33;2.20;;;;;;;-1.23;94.55;95863.16;5050856;28;20202;-71
2023/03/11 07:03:29;;;;;;;2.10;2.00;;;;;;;-1.24;93.22;95859.75;5052485;28;20202;-71
2023/03/11 07:05:57;;;;;;;2.70;2.30;;;;;;;-1.21;93.39;95872.47;5038883;28;20816;-71
2023/03/11 07:08:25;;;;;;;3.67;3.10;;;;;;;-1.17;93.06;95879.00;5009576;28;20849;-71
2023/03/11 07:11:00;;;;;;;2.00;1.90;;;;;;;-1.04;91.99;95878.69;5049740;28;20499;-72
2023/03/11 07:13:28;;;;;;;2.00;1.90;;;;;;;-0.95;91.34;95887.38;5038195;28;20232;-71
2023/03/11 07:16:03;;;;;;;2.40;2.30;;;;;;;-0.91;89.97;95883.56;5059049;28;20281;-70
2023/03/11 07:18:33;;;;;;;2.30;2.20;;;;;;;-0.81;89.46;95882.69;5032993;28;20256;-72
2023/03/11 07:21:01;;;;;;;2.10;2.00;;;;;;;-0.61;88.64;95891.22;5009066;28;20222;-70
2023/03/11 07:23:29;;;;;;;2.27;2.17;;;;;;;-0.60;86.23;95888.44;5015216;28;20701;-70
2023/03/11 07:25:57;;;;;;;2.07;1.97;;;;;;;-0.46;85.85;95891.53;5037665;28;20661;-70
2023/03/11 07:28:26;;;;;;;5.50;1.93;;;;;;;-0.64;84.25;95894.91;5041075;28;20704;-70
2023/03/11 07:30:55;;;;;;;1.70;1.70;;;;;;;-0.56;84.63;95903.78;5046547;28;20206;-70
2023/03/11 07:33:23;;;;;;;3.60;3.30;;;;;;;-0.41;83.89;95902.31;5052822;28;20835;-71
2023/03/11 07:35:52;;;;;;;3.13;2.83;;;;;;;-0.34;83.44;95905.16;5034828;28;20988;-70
2023/03/11 07:38:20;;;;;;;2.60;2.10;;;;;;;-0.28;83.59;95906.34;5056237;28;20206;-70
2023/03/11 07:40:47;;;;;;;2.60;2.40;;;;;;;-0.37;83.48;95908.06;5011623;28;20213;-68
2023/03/11 07:43:15;;;;;;;1.90;1.83;;;;;;;-0.38;83.18;95917.63;5058242;28;20404;-70
2023/03/11 07:45:43;;;;;;;1.77;1.77;;;;;;;-0.43;82.99;95922.47;5035468;28;20234;-72
2023/03/11 07:48:10;;;;;;;2.63;2.53;;;;;;;-0.34;82.76;95929.38;5056850;28;20736;-69
2023/03/11 07:50:38;;;;;;;1.93;1.80;;;;;;;-0.35;82.22;95916.53;5053524;28;20202;-70
2023/03/11 07:53:07;;;;;;;2.20;2.10;;;;;;;-0.33;82.59;95917.22;5053867;28;20213;-70
2023/03/11 07:55:35;;;;;;;1.83;1.73;;;;;;;-0.19;82.67;95928.88;5012833;28;20512;-68
2023/03/11 07:58:02;;;;;;;2.47;2.27;;;;;;;-0.11;82.96;95946.38;5061580;28;20652;-70
2023/03/11 08:00:30;;;;;;;2.10;2.00;;;;;;;-0.02;82.93;95941.09;5029361;28;20210;-70
2023/03/11 08:02:57;;;;;;;2.27;2.17;;;;;;;0.09;82.35;95955.69;5060011;28;20202;-70
2023/03/11 08:05:25;;;;;;;3.30;2.43;;;;;;;0.13;82.11;95957.03;5060856;28;20217;-70
2023/03/11 08:07:53;;;;;;;3.17;2.87;;;;;;;-0.04;81.77;95960.44;5057550;28;20312;-70
2023/03/11 08:10:25;;;;;;;2.40;2.30;;;;;;;-0.13;81.96;95972.56;5014827;28;20218;-70
2023/03/11 08:12:52;;;;;;;2.90;2.70;;;;;;;-0.09;83.24;95975.69;5065362;28;20209;-71
2023/03/11 08:15:20;;;;;;;3.20;3.00;;;;;;;-0.13;83.33;95979.56;5054903;28;20324;-70
2023/03/11 08:17:48;;;;;;;3.03;2.83;;;;;;;0.06;84.01;95981.22;5045961;28;20431;-72
2023/03/11 08:20:16;;;;;;;2.47;2.37;;;;;;;0.21;83.72;95987.56;5067007;28;20586;-71
2023/03/11 08:22:43;;;;;;;2.20;2.10;;;;;;;0.24;83.48;95994.25;5053713;28;21042;-69
2023/03/11 08:25:26;;;;;;;2.10;1.90;;;;;;;0.12;83.41;95996.25;5017965;28;20705;-70
2023/03/11 08:27:53;;;;;;;1.83;1.77;;;;;;;0.09;84.00;95997.38;5061927;28;20253;-69
2023/03/11 08:30:22;;;;;;;2.40;2.20;;;;;;;0.25;84.59;96007.13;5055974;28;20237;-70
2023/03/11 08:32:49;;;;;;;2.90;2.80;;;;;;;0.24;84.32;96008.09;5045855;28;20206;-70
2023/03/11 08:35:18;;;;;;;2.63;2.43;;;;;;;0.13;84.81;96011.75;5035336;28;20218;-69
2023/03/11 08:37:45;;;;;;;2.20;2.10;;;;;;;0.05;83.96;96010.81;5030102;28;20229;-70
2023/03/11 08:40:13;;;;;;;2.20;2.10;;;;;;;0.04;84.83;96011.78;5006059;28;20679;-70
2023/03/11 08:42:42;;;;;;;2.10;2.03;;;;;;;0.02;85.58;96016.34;5041319;28;20210;-72
2023/03/11 08:45:11;;;;;;;2.03;1.93;;;;;;;0.10;85.17;96026.81;5055445;28;20427;-70
2023/03/11 08:47:39;;;;;;;2.30;2.20;;;;;;;0.03;84.38;96026.63;5039334;28;20224;-69
2023/03/11 08:50:09;;;;;;;2.10;2.00;;;;;;;-0.15;84.20;96042.19;5059629;28;20613;-69
2023/03/11 08:52:37;;;;;;;1.80;1.73;;;;;;;-0.23;83.91;96039.47;5062499;28;20436;-69
2023/03/11 08:55:07;;;;;;;1.70;1.60;;;;;;;-0.27;82.72;96038.13;5013339;28;20770;-69
2023/03/11 08:57:36;;;;;;;1.70;1.60;;;;;;;-0.21;83.24;96047.97;5061326;28;20212;-67
2023/03/11 09:00:08;;;;;;;1.47;1.40;;;;;;;-0.18;83.12;96051.09;5054755;28;20198;-70
2023/03/11 09:02:40;;;;;;;1.67;1.67;;;;;;;-0.04;82.78;96062.84;5039556;28;20209;-70
2023/03/11 09:05:09;;;;;;;2.33;2.23;;;;;;;0.11;83.04;96057.13;5064568;28;20705;-71
2023/03/11 09:07:36;;;;;;;3.00;2.13;;;;;;;-0.11;83.57;96047.91;5058228;28;20420;-70
2023/03/11 09:10:04;;;;;;;1.97;1.87;;;;;;;0.17;85.33;96069.56;5055634;28;20375;-69
2023/03/11 09:12:32;;;;;;;2.10;1.90;;;;;;;-0.01;84.03;96072.97;5011159;28;20649;-70
2023/03/11 09:15:01;;;;;;;1.57;1.53;;;;;;;0.04;83.83;96063.88;5049771;28;20657;-71
2023/03/11 09:17:30;;;;;;;1.57;1.57;;;;;;;-0.08;84.09;96058.03;5061746;28;20688;-69
2023/03/11 09:19:58;;;;;;;2.03;1.87;;;;;;;0.04;84.71;96071.69;5037781;28;20221;-70
2023/03/11 09:22:25;;;;;;;2.10;2.00;;;;;;;0.25;84.43;96085.31;5054647;28;20449;-68
2023/03/11 09:24:53;;;;;;;2.17;1.97;;;;;;;0.38;83.49;96086.72;5057125;28;20199;-70
2023/03/11 09:27:21;;;;;;;1.80;1.70;;;;;;;0.24;83.98;96086.25;5016993;28;20226;-70
2023/03/11 09:29:48;;;;;;;2.00;1.90;;;;;;;0.41;83.29;96083.81;5061164;28;20538;-70
2023/03/11 09:32:16;;;;;;;1.97;1.63;;;;;;;0.79;82.78;96083.69;5060266;28;20202;-68
2023/03/11 09:34:45;;;;;;;2.00;1.90;;;;;;;0.59;82.23;96083.03;5039589;28;20210;-70
2023/03/11 09:37:13;;;;;;;4.13;2.77;;;;;;;0.48;81.64;96092.69;5057263;28;20222;-69
2023/03/11 09:39:40;;;;;;;2.50;2.30;;;;;;;0.56;81.80;96086.75;5057874;28;20201;-69
2023/03/11 09:42:16;;;;;;;1.83;1.73;;;;;;;0.81;80.80;96097.41;5054985;28;20335;-68
2023/03/11 09:44:49;;;;;;;1.87;1.83;;;;;;;0.59;78.64;96102.09;5013706;28;20454;-70
2023/03/11 09:47:38;;;;;;;2.30;2.20;;;;;;;0.56;79.18;96089.34;5057809;28;20523;-70
2023/03/11 09:50:15;;;;;;;2.07;1.97;;;;;;;0.57;78.04;96106.63;5021049;28;20439;-69
2023/03/11 09:52:46;;;;;;;1.97;1.77;;;;;;;0.64;77.97;96104.25;5056624;28;20194;-69
2023/03/11 09:55:27;;;;;;;2.37;2.27;;;;;;;0.82;78.36;96101.66;5056266;28;20268;-70
2023/03/11 09:57:56;;;;;;;2.20;2.00;;;;;;;0.79;77.23;96097.53;5023153;28;20330;-70
2023/03/11 10:00:24;;;;;;;2.40;2.13;;;;;;;0.84;77.18;96108.34;5055185;28;20590;-69
2023/03/11 10:02:52;;;;;;;2.37;1.53;;;;;;;0.88;75.59;96102.81;5042677;28;20202;-70
2023/03/11 10:05:23;;;;;;;2.50;1.83;;;;;;;1.08;75.73;96108.69;5054466;28;20229;-68
2023/03/11 10:07:55;;;;;;;2.53;2.23;;;;;;;1.19;74.41;96103.25;5052010;28;20237;-69
2023/03/11 10:10:23;;;;;;;1.90;1.80;;;;;;;1.17;73.82;96106.97;5064561;28;20252;-67
2023/03/11 10:12:59;;;;;;;2.30;1.67;;;;;;;1.07;74.04;96101.84;5034255;28;20634;-70
2023/03/11 10:15:36;;;;;;;2.07;1.97;;;;;;;0.89;73.92;96105.28;5057789;28;20234;-69
2023/03/11 10:18:20;;;;;;;2.40;2.30;;;;;;;0.98;73.85;96112.22;5053470;28;20817;-70
2023/03/11 10:20:56;;;;;;;1.80;1.70;;;;;;;1.11;73.86;96114.44;5038848;28;20217;-70
2023/03/11 10:23:26;;;;;;;1.87;1.77;;;;;;;1.55;73.11;96112.78;5048594;28;20506;-69
2023/03/11 10:26:00;;;;;;;1.53;1.53;;;;;;;1.49;72.93;96102.97;5056268;28;20222;-69
2023/03/11 10:28:32;;;;;;;1.90;1.80;;;;;;;1.60;72.76;96105.31;5058709;28;20217;-69
2023/03/11 10:31:06;;;;;;;1.30;1.30;;;;;;;1.66;72.98;96104.69;5006815;28;20222;-68
2023/03/11 10:33:37;;;;;;;2.27;1.80;;;;;;;1.46;73.85;96109.28;5060576;28;20202;-71
2023/03/11 10:36:10;;;;;;;2.30;2.20;;;;;;;1.05;76.15;96111.59;5036800;28;20316;-69
2023/03/11 10:38:45;;;;;;;1.87;1.77;;;;;;;0.96;76.22;96129.00;5052476;28;20554;-69
2023/03/11 10:41:18;;;;;;;1.33;1.33;;;;;;;0.46;74.75;96120.69;5057250;28;20885;-69
2023/03/11 10:43:48;;;;;;;1.47;1.20;;;;;;;0.54;75.54;96133.00;5055098;28;20206;-70
2023/03/11 10:46:19;;;;;;;1.97;1.83;;;;;;;0.81;74.58;96144.34;5012897;28;20601;-70
2023/03/11 10:48:47;;;;;;;1.43;1.33;;;;;;;0.95;73.63;96135.19;5056502;28;20226;-69
2023/03/11 10:51:21;;;;;;;2.00;1.97;;;;;;;1.15;74.19;96134.03;5041365;28;20494;-69
2023/03/11 10:53:51;;;;;;;1.63;1.53;;;;;;;1.55;74.00;96137.13;5054637;28;20694;-70
2023/03/11 10:56:28;;;;;;;2.20;2.10;;;;;;;1.57;72.40;96139.56;5057391;28;20245;-68
2023/03/11 10:58:56;;;;;;;1.80;1.43;;;;;;;1.47;71.88;96139.66;5056240;28;20221;-69
2023/03/11 11:01:24;;;;;;;1.90;1.80;;;;;;;1.32;72.81;96143.78;5010097;28;20942;-69
2023/03/11 11:03:55;;;;;;;1.77;1.67;;;;;;;1.33;71.56;96128.00;5055589;28;20904;-69
2023/03/11 11:06:27;;;;;;;1.97;1.87;;;;;;;1.14;71.83;96132.41;5036421;28;20226;-69
2023/03/11 11:09:06;;;;;;;2.00;1.90;;;;;;;1.19;72.07;96139.78;5053331;28;20419;-70
2023/03/11 11:11:35;;;;;;;1.53;1.43;;;;;;;0.78;73.29;96140.22;5055561;28;20214;-68
2023/03/11 11:14:03;;;;;;;1.60;1.60;;;;;;;0.60;74.81;96142.03;5058562;28;20656;-69
2023/03/11 11:16:33;;;;;;;2.10;2.00;;;;;;;0.18;77.31;96148.53;5014389;28;20605;-69
2023/03/11 11:19:03;;;;;;;2.40;2.20;;;;;;;0.22;80.50;96145.53;5059122;28;20236;-69
2023/03/11 11:21:34;;;;;;;1.87;1.87;;;;;;;0.40;78.65;96142.94;5035608;28;20749;-69
2023/03/11 11:24:20;;;;;;;1.87;1.77;;;;;;;0.79;76.03;96144.47;5051270;28;20434;-69
2023/03/11 11:27:03;;;;;;;1.70;1.70;;;;;;;1.25;74.97;96136.56;5058827;28;20594;-69
2023/03/11 11:29:31;;;;;;;2.07;1.93;;;;;;;1.35;73.29;96136.50;5056282;28;20606;-69
2023/03/11 11:32:17;;;;;;;2.00;1.93;;;;;;;1.25;73.40;96136.56;5012263;28;20528;-70
2023/03/11 11:35:00;;;;;;;2.53;2.33;;;;;;;1.47;72.76;96131.81;5055619;28;20209;-70
2023/03/11 11:37:31;;;;;;;2.00;1.90;;;;;;;1.75;71.66;96138.72;5032300;28;20616;-69
2023/03/11 11:40:08;;;;;;;2.77;2.57;;;;;;;1.93;71.45;96130.81;5054229;28;20217;-70
2023/03/11 11:42:39;;;;;;;2.13;2.03;;;;;;;1.54;70.79;96143.31;5056918;28;20206;-69
2023/03/11 11:45:13;;;;;;;1.87;1.77;;;;;;;1.73;70.57;96144.91;5055112;28;20406;-70